sensor_id;sensor_type;location;lat;lon;timestamp;P1;durP1;ratioP1;P2;durP2;ratioP2
55483;SDS011;41345;51.704;5.146;2023-07-16T00:02:41;9.40;;;2.53;;
55483;SDS011;41345;51.704;5.146;2023-07-16T00:07:41;9.65;;;1.98;;
55483;SDS011;41345;51.704;5.146;2023-07-16T00:12:42;8.60;;;1.83;;
55483;SDS011;41345;51.704;5.146;2023-07-16T00:17:42;6.93;;;2.15;;
55483;SDS011;41345;51.704;5.146;2023-07-16T00:22:42;9.00;;;2.17;;
55483;SDS011;41345;51.704;5.146;2023-07-16T00:27:42;10.33;;;2.20;;
55483;SDS011;41345;51.704;5.146;2023-07-16T00:32:43;7.67;;;2.10;;
55483;SDS011;41345;51.704;5.146;2023-07-16T00:37:43;6.57;;;1.90;;
55483;SDS011;41345;51.704;5.146;2023-07-16T00:42:45;10.35;;;2.47;;
55483;SDS011;41345;51.704;5.146;2023-07-16T00:47:45;9.33;;;2.30;;
55483;SDS011;41345;51.704;5.146;2023-07-16T00:52:45;7.47;;;2.42;;
55483;SDS011;41345;51.704;5.146;2023-07-16T00:57:46;12.60;;;2.63;;
55483;SDS011;41345;51.704;5.146;2023-07-16T01:02:47;8.75;;;2.65;;
55483;SDS011;41345;51.704;5.146;2023-07-16T01:07:58;12.98;;;2.40;;
55483;SDS011;41345;51.704;5.146;2023-07-16T01:12:59;8.88;;;2.40;;
55483;SDS011;41345;51.704;5.146;2023-07-16T01:18:00;11.90;;;3.08;;
55483;SDS011;41345;51.704;5.146;2023-07-16T01:33:01;8.60;;;2.80;;
55483;SDS011;41345;51.704;5.146;2023-07-16T01:38:03;12.48;;;3.47;;
55483;SDS011;41345;51.704;5.146;2023-07-16T01:43:03;11.37;;;3.83;;
55483;SDS011;41345;51.704;5.146;2023-07-16T01:53:03;9.68;;;2.95;;
55483;SDS011;41345;51.704;5.146;2023-07-16T01:58:04;10.40;;;3.17;;
55483;SDS011;41345;51.704;5.146;2023-07-16T02:03:05;9.27;;;3.28;;
55483;SDS011;41345;51.704;5.146;2023-07-16T02:08:05;12.67;;;3.47;;
55483;SDS011;41345;51.704;5.146;2023-07-16T02:13:06;11.38;;;3.45;;
55483;SDS011;41345;51.704;5.146;2023-07-16T02:18:06;9.07;;;3.33;;
55483;SDS011;41345;51.704;5.146;2023-07-16T02:23:06;9.85;;;2.95;;
55483;SDS011;41345;51.704;5.146;2023-07-16T02:28:07;9.10;;;2.97;;
55483;SDS011;41345;51.704;5.146;2023-07-16T02:33:07;12.80;;;3.58;;
55483;SDS011;41345;51.704;5.146;2023-07-16T02:38:07;10.45;;;3.83;;
55483;SDS011;41345;51.704;5.146;2023-07-16T02:43:08;8.40;;;3.08;;
55483;SDS011;41345;51.704;5.146;2023-07-16T02:48:08;9.07;;;2.78;;
55483;SDS011;41345;51.704;5.146;2023-07-16T02:53:08;9.77;;;3.33;;
55483;SDS011;41345;51.704;5.146;2023-07-16T02:58:09;11.80;;;3.13;;
55483;SDS011;41345;51.704;5.146;2023-07-16T03:03:09;14.15;;;3.42;;
55483;SDS011;41345;51.704;5.146;2023-07-16T03:08:09;9.63;;;3.40;;
55483;SDS011;41345;51.704;5.146;2023-07-16T03:13:10;9.10;;;3.37;;
55483;SDS011;41345;51.704;5.146;2023-07-16T03:18:10;9.77;;;3.67;;
55483;SDS011;41345;51.704;5.146;2023-07-16T03:23:10;14.38;;;3.97;;
55483;SDS011;41345;51.704;5.146;2023-07-16T03:28:11;11.70;;;3.80;;
55483;SDS011;41345;51.704;5.146;2023-07-16T03:33:11;9.87;;;3.13;;
55483;SDS011;41345;51.704;5.146;2023-07-16T03:38:12;11.55;;;3.33;;
55483;SDS011;41345;51.704;5.146;2023-07-16T03:43:12;12.70;;;3.40;;
55483;SDS011;41345;51.704;5.146;2023-07-16T03:48:12;12.93;;;3.38;;
55483;SDS011;41345;51.704;5.146;2023-07-16T03:53:12;10.85;;;4.00;;
55483;SDS011;41345;51.704;5.146;2023-07-16T03:58:13;10.87;;;3.93;;
55483;SDS011;41345;51.704;5.146;2023-07-16T04:03:13;11.20;;;3.80;;
55483;SDS011;41345;51.704;5.146;2023-07-16T04:08:13;8.55;;;3.80;;
55483;SDS011;41345;51.704;5.146;2023-07-16T04:13:14;11.13;;;3.95;;
55483;SDS011;41345;51.704;5.146;2023-07-16T04:18:14;10.18;;;4.38;;
55483;SDS011;41345;51.704;5.146;2023-07-16T04:23:14;12.18;;;3.90;;
55483;SDS011;41345;51.704;5.146;2023-07-16T04:28:14;11.75;;;4.68;;
55483;SDS011;41345;51.704;5.146;2023-07-16T04:33:15;9.38;;;3.95;;
55483;SDS011;41345;51.704;5.146;2023-07-16T04:38:15;13.33;;;5.20;;
55483;SDS011;41345;51.704;5.146;2023-07-16T04:43:15;12.40;;;4.30;;
55483;SDS011;41345;51.704;5.146;2023-07-16T04:48:16;13.27;;;4.67;;
55483;SDS011;41345;51.704;5.146;2023-07-16T04:53:16;13.27;;;5.10;;
55483;SDS011;41345;51.704;5.146;2023-07-16T04:58:18;16.23;;;4.88;;
55483;SDS011;41345;51.704;5.146;2023-07-16T05:03:18;13.27;;;4.70;;
55483;SDS011;41345;51.704;5.146;2023-07-16T05:08:19;14.70;;;4.35;;
55483;SDS011;41345;51.704;5.146;2023-07-16T05:13:20;11.50;;;5.10;;
55483;SDS011;41345;51.704;5.146;2023-07-16T05:18:21;11.03;;;4.80;;
55483;SDS011;41345;51.704;5.146;2023-07-16T05:23:22;16.35;;;5.13;;
55483;SDS011;41345;51.704;5.146;2023-07-16T05:28:22;11.80;;;5.00;;
55483;SDS011;41345;51.704;5.146;2023-07-16T05:33:22;10.77;;;4.90;;
55483;SDS011;41345;51.704;5.146;2023-07-16T05:38:23;13.13;;;4.47;;
55483;SDS011;41345;51.704;5.146;2023-07-16T05:43:23;15.63;;;5.20;;
55483;SDS011;41345;51.704;5.146;2023-07-16T05:48:24;16.80;;;5.45;;
55483;SDS011;41345;51.704;5.146;2023-07-16T05:53:24;12.18;;;5.00;;
55483;SDS011;41345;51.704;5.146;2023-07-16T05:58:24;12.07;;;4.95;;
55483;SDS011;41345;51.704;5.146;2023-07-16T06:03:24;13.45;;;5.13;;
55483;SDS011;41345;51.704;5.146;2023-07-16T06:08:25;12.30;;;5.07;;
55483;SDS011;41345;51.704;5.146;2023-07-16T06:13:25;11.60;;;5.15;;
55483;SDS011;41345;51.704;5.146;2023-07-16T06:18:25;13.70;;;5.32;;
55483;SDS011;41345;51.704;5.146;2023-07-16T06:23:25;14.48;;;5.70;;
55483;SDS011;41345;51.704;5.146;2023-07-16T06:28:26;17.90;;;5.90;;
55483;SDS011;41345;51.704;5.146;2023-07-16T06:33:26;13.93;;;5.47;;
55483;SDS011;41345;51.704;5.146;2023-07-16T06:38:27;13.32;;;5.55;;
55483;SDS011;41345;51.704;5.146;2023-07-16T06:43:27;13.80;;;5.65;;
55483;SDS011;41345;51.704;5.146;2023-07-16T06:48:27;15.88;;;6.15;;
55483;SDS011;41345;51.704;5.146;2023-07-16T06:53:27;13.45;;;5.65;;
55483;SDS011;41345;51.704;5.146;2023-07-16T06:58:31;16.00;;;5.65;;
55483;SDS011;41345;51.704;5.146;2023-07-16T07:03:33;16.73;;;6.15;;
55483;SDS011;41345;51.704;5.146;2023-07-16T07:08:33;13.40;;;5.53;;
55483;SDS011;41345;51.704;5.146;2023-07-16T07:13:33;14.38;;;6.18;;
55483;SDS011;41345;51.704;5.146;2023-07-16T07:18:34;12.35;;;5.47;;
55483;SDS011;41345;51.704;5.146;2023-07-16T07:23:34;12.93;;;6.03;;
55483;SDS011;41345;51.704;5.146;2023-07-16T07:28:34;16.48;;;6.22;;
55483;SDS011;41345;51.704;5.146;2023-07-16T07:33:34;12.70;;;6.03;;
55483;SDS011;41345;51.704;5.146;2023-07-16T07:38:35;16.15;;;5.68;;
55483;SDS011;41345;51.704;5.146;2023-07-16T07:43:35;15.60;;;5.55;;
55483;SDS011;41345;51.704;5.146;2023-07-16T07:48:35;14.73;;;5.97;;
55483;SDS011;41345;51.704;5.146;2023-07-16T07:53:36;13.73;;;5.43;;
55483;SDS011;41345;51.704;5.146;2023-07-16T07:58:36;12.73;;;5.38;;
55483;SDS011;41345;51.704;5.146;2023-07-16T08:03:36;14.32;;;5.65;;
55483;SDS011;41345;51.704;5.146;2023-07-16T08:08:37;10.75;;;5.50;;
55483;SDS011;41345;51.704;5.146;2023-07-16T08:13:37;15.27;;;5.82;;
55483;SDS011;41345;51.704;5.146;2023-07-16T08:18:37;12.38;;;5.38;;
55483;SDS011;41345;51.704;5.146;2023-07-16T08:23:37;14.43;;;5.60;;
55483;SDS011;41345;51.704;5.146;2023-07-16T08:28:38;14.77;;;6.10;;
55483;SDS011;41345;51.704;5.146;2023-07-16T08:33:38;16.73;;;5.72;;
55483;SDS011;41345;51.704;5.146;2023-07-16T08:38:39;12.23;;;5.50;;
55483;SDS011;41345;51.704;5.146;2023-07-16T08:43:39;12.83;;;5.60;;
55483;SDS011;41345;51.704;5.146;2023-07-16T08:48:40;11.07;;;5.40;;
55483;SDS011;41345;51.704;5.146;2023-07-16T08:53:40;13.15;;;4.97;;
55483;SDS011;41345;51.704;5.146;2023-07-16T08:58:40;12.85;;;5.00;;
55483;SDS011;41345;51.704;5.146;2023-07-16T09:03:42;13.98;;;5.35;;
55483;SDS011;41345;51.704;5.146;2023-07-16T09:08:43;14.68;;;6.60;;
55483;SDS011;41345;51.704;5.146;2023-07-16T09:13:43;15.65;;;5.50;;
55483;SDS011;41345;51.704;5.146;2023-07-16T09:18:44;13.18;;;5.45;;
55483;SDS011;41345;51.704;5.146;2023-07-16T09:23:45;12.10;;;5.28;;
55483;SDS011;41345;51.704;5.146;2023-07-16T09:28:47;12.17;;;5.57;;
55483;SDS011;41345;51.704;5.146;2023-07-16T09:33:48;12.35;;;5.72;;
55483;SDS011;41345;51.704;5.146;2023-07-16T09:38:48;13.80;;;4.95;;
55483;SDS011;41345;51.704;5.146;2023-07-16T09:43:48;14.52;;;6.28;;
55483;SDS011;41345;51.704;5.146;2023-07-16T09:48:49;14.80;;;5.73;;
55483;SDS011;41345;51.704;5.146;2023-07-16T09:53:49;13.27;;;5.40;;
55483;SDS011;41345;51.704;5.146;2023-07-16T09:58:50;15.55;;;5.47;;
55483;SDS011;41345;51.704;5.146;2023-07-16T10:03:51;12.05;;;5.15;;
55483;SDS011;41345;51.704;5.146;2023-07-16T10:08:51;10.43;;;4.50;;
55483;SDS011;41345;51.704;5.146;2023-07-16T10:13:52;12.67;;;4.77;;
55483;SDS011;41345;51.704;5.146;2023-07-16T10:18:53;10.73;;;4.45;;
55483;SDS011;41345;51.704;5.146;2023-07-16T10:23:57;11.60;;;4.07;;
55483;SDS011;41345;51.704;5.146;2023-07-16T10:28:57;11.80;;;4.88;;
55483;SDS011;41345;51.704;5.146;2023-07-16T10:39:02;10.27;;;4.95;;
55483;SDS011;41345;51.704;5.146;2023-07-16T10:44:02;12.35;;;5.40;;
55483;SDS011;41345;51.704;5.146;2023-07-16T10:49:03;13.32;;;5.18;;
55483;SDS011;41345;51.704;5.146;2023-07-16T10:54:03;12.40;;;5.67;;
55483;SDS011;41345;51.704;5.146;2023-07-16T10:59:05;13.98;;;5.40;;
55483;SDS011;41345;51.704;5.146;2023-07-16T11:04:07;11.85;;;4.88;;
55483;SDS011;41345;51.704;5.146;2023-07-16T11:09:08;13.68;;;5.57;;
55483;SDS011;41345;51.704;5.146;2023-07-16T11:14:08;13.60;;;5.32;;
55483;SDS011;41345;51.704;5.146;2023-07-16T11:19:09;14.27;;;5.30;;
55483;SDS011;41345;51.704;5.146;2023-07-16T11:24:10;12.13;;;5.00;;
55483;SDS011;41345;51.704;5.146;2023-07-16T11:29:12;10.60;;;5.00;;
55483;SDS011;41345;51.704;5.146;2023-07-16T11:34:13;14.93;;;5.38;;
55483;SDS011;41345;51.704;5.146;2023-07-16T11:39:13;10.05;;;5.00;;
55483;SDS011;41345;51.704;5.146;2023-07-16T11:44:14;9.57;;;4.85;;
55483;SDS011;41345;51.704;5.146;2023-07-16T11:49:14;14.13;;;5.23;;
55483;SDS011;41345;51.704;5.146;2023-07-16T11:54:14;12.65;;;5.65;;
55483;SDS011;41345;51.704;5.146;2023-07-16T11:59:15;13.98;;;5.68;;
55483;SDS011;41345;51.704;5.146;2023-07-16T12:04:20;11.90;;;5.07;;
55483;SDS011;41345;51.704;5.146;2023-07-16T12:09:20;12.27;;;5.20;;
55483;SDS011;41345;51.704;5.146;2023-07-16T12:14:20;15.15;;;5.82;;
55483;SDS011;41345;51.704;5.146;2023-07-16T12:19:20;13.47;;;5.23;;
55483;SDS011;41345;51.704;5.146;2023-07-16T12:24:21;12.15;;;5.28;;
55483;SDS011;41345;51.704;5.146;2023-07-16T12:29:21;10.97;;;6.30;;
55483;SDS011;41345;51.704;5.146;2023-07-16T12:34:21;13.30;;;6.13;;
55483;SDS011;41345;51.704;5.146;2023-07-16T12:39:22;13.32;;;5.95;;
55483;SDS011;41345;51.704;5.146;2023-07-16T12:44:22;15.15;;;5.65;;
55483;SDS011;41345;51.704;5.146;2023-07-16T12:49:23;10.70;;;4.38;;
55483;SDS011;41345;51.704;5.146;2023-07-16T12:54:23;8.00;;;3.70;;
55483;SDS011;41345;51.704;5.146;2023-07-16T12:59:23;8.83;;;3.47;;
55483;SDS011;41345;51.704;5.146;2023-07-16T13:04:24;8.18;;;3.25;;
55483;SDS011;41345;51.704;5.146;2023-07-16T13:09:25;8.25;;;2.90;;
55483;SDS011;41345;51.704;5.146;2023-07-16T13:14:25;8.53;;;2.30;;
55483;SDS011;41345;51.704;5.146;2023-07-16T13:19:26;7.15;;;2.30;;
55483;SDS011;41345;51.704;5.146;2023-07-16T13:24:26;6.57;;;1.70;;
55483;SDS011;41345;51.704;5.146;2023-07-16T13:29:26;5.28;;;1.70;;
55483;SDS011;41345;51.704;5.146;2023-07-16T13:34:27;6.50;;;2.25;;
55483;SDS011;41345;51.704;5.146;2023-07-16T13:39:27;6.43;;;2.05;;
55483;SDS011;41345;51.704;5.146;2023-07-16T13:44:27;7.88;;;1.92;;
55483;SDS011;41345;51.704;5.146;2023-07-16T13:49:28;6.50;;;1.77;;
55483;SDS011;41345;51.704;5.146;2023-07-16T13:54:28;5.50;;;1.58;;
55483;SDS011;41345;51.704;5.146;2023-07-16T13:59:28;8.07;;;1.77;;
55483;SDS011;41345;51.704;5.146;2023-07-16T14:04:29;4.83;;;1.40;;
55483;SDS011;41345;51.704;5.146;2023-07-16T14:09:29;6.50;;;1.92;;
55483;SDS011;41345;51.704;5.146;2023-07-16T14:14:30;10.00;;;2.10;;
55483;SDS011;41345;51.704;5.146;2023-07-16T14:19:30;8.38;;;2.67;;
55483;SDS011;41345;51.704;5.146;2023-07-16T14:24:30;10.83;;;2.27;;
55483;SDS011;41345;51.704;5.146;2023-07-16T14:29:31;7.67;;;2.10;;
55483;SDS011;41345;51.704;5.146;2023-07-16T14:34:31;6.20;;;2.20;;
55483;SDS011;41345;51.704;5.146;2023-07-16T14:39:31;6.13;;;2.60;;
55483;SDS011;41345;51.704;5.146;2023-07-16T14:44:32;8.38;;;2.65;;
55483;SDS011;41345;51.704;5.146;2023-07-16T14:49:33;6.75;;;2.85;;
55483;SDS011;41345;51.704;5.146;2023-07-16T14:54:33;8.85;;;2.85;;
55483;SDS011;41345;51.704;5.146;2023-07-16T14:59:35;6.80;;;2.70;;
55483;SDS011;41345;51.704;5.146;2023-07-16T15:04:36;6.68;;;2.53;;
55483;SDS011;41345;51.704;5.146;2023-07-16T15:09:38;9.02;;;2.90;;
55483;SDS011;41345;51.704;5.146;2023-07-16T15:14:38;8.57;;;2.83;;
55483;SDS011;41345;51.704;5.146;2023-07-16T15:19:38;8.35;;;2.88;;
55483;SDS011;41345;51.704;5.146;2023-07-16T15:24:39;8.20;;;3.10;;
55483;SDS011;41345;51.704;5.146;2023-07-16T15:29:39;8.63;;;3.47;;
55483;SDS011;41345;51.704;5.146;2023-07-16T15:34:39;6.77;;;3.17;;
55483;SDS011;41345;51.704;5.146;2023-07-16T15:39:41;8.73;;;2.70;;
55483;SDS011;41345;51.704;5.146;2023-07-16T15:44:42;7.63;;;2.77;;
55483;SDS011;41345;51.704;5.146;2023-07-16T15:49:42;6.17;;;2.50;;
55483;SDS011;41345;51.704;5.146;2023-07-16T15:54:42;7.10;;;2.70;;
55483;SDS011;41345;51.704;5.146;2023-07-16T15:59:43;6.03;;;2.50;;
55483;SDS011;41345;51.704;5.146;2023-07-16T16:04:44;9.05;;;2.70;;
55483;SDS011;41345;51.704;5.146;2023-07-16T16:09:44;5.90;;;2.45;;
55483;SDS011;41345;51.704;5.146;2023-07-16T16:14:45;9.10;;;3.00;;
55483;SDS011;41345;51.704;5.146;2023-07-16T16:19:45;6.77;;;2.27;;
55483;SDS011;41345;51.704;5.146;2023-07-16T16:24:45;4.40;;;1.80;;
55483;SDS011;41345;51.704;5.146;2023-07-16T16:29:46;7.27;;;2.13;;
55483;SDS011;41345;51.704;5.146;2023-07-16T16:34:47;3.87;;;1.90;;
55483;SDS011;41345;51.704;5.146;2023-07-16T16:39:47;4.47;;;1.70;;
55483;SDS011;41345;51.704;5.146;2023-07-16T16:44:48;5.65;;;2.00;;
55483;SDS011;41345;51.704;5.146;2023-07-16T16:49:48;5.00;;;2.03;;
55483;SDS011;41345;51.704;5.146;2023-07-16T16:54:49;6.70;;;1.90;;
55483;SDS011;41345;51.704;5.146;2023-07-16T16:59:49;4.57;;;1.90;;
55483;SDS011;41345;51.704;5.146;2023-07-16T17:04:51;5.90;;;2.00;;
55483;SDS011;41345;51.704;5.146;2023-07-16T17:09:51;4.70;;;2.05;;
55483;SDS011;41345;51.704;5.146;2023-07-16T17:14:51;6.65;;;1.80;;
55483;SDS011;41345;51.704;5.146;2023-07-16T17:19:55;8.17;;;1.90;;
55483;SDS011;41345;51.704;5.146;2023-07-16T17:24:56;5.57;;;1.83;;
55483;SDS011;41345;51.704;5.146;2023-07-16T17:29:56;3.97;;;1.73;;
55483;SDS011;41345;51.704;5.146;2023-07-16T17:34:57;6.70;;;1.90;;
55483;SDS011;41345;51.704;5.146;2023-07-16T17:39:57;5.60;;;1.85;;
55483;SDS011;41345;51.704;5.146;2023-07-16T17:44:57;5.60;;;2.03;;
55483;SDS011;41345;51.704;5.146;2023-07-16T17:49:58;8.03;;;1.83;;
55483;SDS011;41345;51.704;5.146;2023-07-16T17:54:58;4.22;;;1.77;;
55483;SDS011;41345;51.704;5.146;2023-07-16T17:59:58;3.13;;;1.30;;
55483;SDS011;41345;51.704;5.146;2023-07-16T18:04:59;10.18;;;1.67;;
55483;SDS011;41345;51.704;5.146;2023-07-16T18:10:01;4.40;;;1.47;;
55483;SDS011;41345;51.704;5.146;2023-07-16T18:15:01;5.15;;;1.35;;
55483;SDS011;41345;51.704;5.146;2023-07-16T18:20:02;3.10;;;1.30;;
55483;SDS011;41345;51.704;5.146;2023-07-16T18:25:03;3.63;;;1.52;;
55483;SDS011;41345;51.704;5.146;2023-07-16T18:30:07;6.65;;;1.65;;
55483;SDS011;41345;51.704;5.146;2023-07-16T18:35:08;4.70;;;1.40;;
55483;SDS011;41345;51.704;5.146;2023-07-16T18:40:08;4.50;;;1.35;;
55483;SDS011;41345;51.704;5.146;2023-07-16T18:45:10;4.90;;;1.55;;
55483;SDS011;41345;51.704;5.146;2023-07-16T18:50:10;4.78;;;1.50;;
55483;SDS011;41345;51.704;5.146;2023-07-16T18:55:11;3.80;;;1.20;;
55483;SDS011;41345;51.704;5.146;2023-07-16T19:00:11;5.18;;;1.60;;
55483;SDS011;41345;51.704;5.146;2023-07-16T19:05:12;4.05;;;1.25;;
55483;SDS011;41345;51.704;5.146;2023-07-16T19:10:12;4.17;;;1.17;;
55483;SDS011;41345;51.704;5.146;2023-07-16T19:15:12;3.55;;;1.30;;
55483;SDS011;41345;51.704;5.146;2023-07-16T19:20:13;3.97;;;1.13;;
55483;SDS011;41345;51.704;5.146;2023-07-16T19:25:13;5.70;;;1.85;;
55483;SDS011;41345;51.704;5.146;2023-07-16T19:30:13;5.30;;;1.83;;
55483;SDS011;41345;51.704;5.146;2023-07-16T19:35:14;4.03;;;1.40;;
55483;SDS011;41345;51.704;5.146;2023-07-16T19:40:14;3.58;;;1.70;;
55483;SDS011;41345;51.704;5.146;2023-07-16T19:45:15;5.03;;;1.42;;
55483;SDS011;41345;51.704;5.146;2023-07-16T19:50:15;5.67;;;1.60;;
55483;SDS011;41345;51.704;5.146;2023-07-16T19:55:15;4.50;;;1.58;;
55483;SDS011;41345;51.704;5.146;2023-07-16T20:00:16;6.10;;;1.63;;
55483;SDS011;41345;51.704;5.146;2023-07-16T20:05:17;5.70;;;1.65;;
55483;SDS011;41345;51.704;5.146;2023-07-16T20:10:18;6.03;;;1.60;;
55483;SDS011;41345;51.704;5.146;2023-07-16T20:15:18;6.82;;;1.98;;
55483;SDS011;41345;51.704;5.146;2023-07-16T20:20:18;5.93;;;1.60;;
55483;SDS011;41345;51.704;5.146;2023-07-16T20:25:19;5.22;;;1.77;;
55483;SDS011;41345;51.704;5.146;2023-07-16T20:30:19;6.33;;;1.70;;
55483;SDS011;41345;51.704;5.146;2023-07-16T20:35:19;5.55;;;1.67;;
55483;SDS011;41345;51.704;5.146;2023-07-16T20:40:20;5.82;;;1.95;;
55483;SDS011;41345;51.704;5.146;2023-07-16T20:45:21;6.97;;;1.73;;
55483;SDS011;41345;51.704;5.146;2023-07-16T20:50:22;4.13;;;1.98;;
55483;SDS011;41345;51.704;5.146;2023-07-16T20:55:24;7.10;;;1.97;;
55483;SDS011;41345;51.704;5.146;2023-07-16T21:00:25;5.43;;;1.73;;
55483;SDS011;41345;51.704;5.146;2023-07-16T21:05:30;4.82;;;1.75;;
55483;SDS011;41345;51.704;5.146;2023-07-16T21:10:31;5.88;;;1.85;;
55483;SDS011;41345;51.704;5.146;2023-07-16T21:15:31;5.53;;;2.00;;
55483;SDS011;41345;51.704;5.146;2023-07-16T21:20:36;7.40;;;1.92;;
55483;SDS011;41345;51.704;5.146;2023-07-16T21:25:39;6.40;;;2.13;;
55483;SDS011;41345;51.704;5.146;2023-07-16T21:30:41;6.90;;;1.83;;
55483;SDS011;41345;51.704;5.146;2023-07-16T21:35:42;6.60;;;1.90;;
55483;SDS011;41345;51.704;5.146;2023-07-16T21:40:42;5.53;;;2.00;;
55483;SDS011;41345;51.704;5.146;2023-07-16T21:45:42;6.45;;;1.80;;
55483;SDS011;41345;51.704;5.146;2023-07-16T21:50:42;5.78;;;2.10;;
55483;SDS011;41345;51.704;5.146;2023-07-16T21:55:43;5.05;;;1.65;;
55483;SDS011;41345;51.704;5.146;2023-07-16T22:00:43;6.13;;;2.00;;
55483;SDS011;41345;51.704;5.146;2023-07-16T22:05:44;13.97;;;2.47;;
55483;SDS011;41345;51.704;5.146;2023-07-16T22:10:44;6.03;;;1.90;;
55483;SDS011;41345;51.704;5.146;2023-07-16T22:15:45;7.70;;;2.47;;
55483;SDS011;41345;51.704;5.146;2023-07-16T22:20:47;6.93;;;2.20;;
55483;SDS011;41345;51.704;5.146;2023-07-16T22:25:47;5.90;;;2.10;;
55483;SDS011;41345;51.704;5.146;2023-07-16T22:30:47;6.32;;;2.10;;
55483;SDS011;41345;51.704;5.146;2023-07-16T22:35:47;7.53;;;1.90;;
55483;SDS011;41345;51.704;5.146;2023-07-16T22:40:48;8.02;;;2.33;;
55483;SDS011;41345;51.704;5.146;2023-07-16T22:45:48;6.13;;;2.30;;
55483;SDS011;41345;51.704;5.146;2023-07-16T22:50:48;6.53;;;2.17;;
55483;SDS011;41345;51.704;5.146;2023-07-16T22:55:49;8.70;;;2.20;;
55483;SDS011;41345;51.704;5.146;2023-07-16T23:00:50;8.40;;;2.63;;
55483;SDS011;41345;51.704;5.146;2023-07-16T23:05:51;5.57;;;2.40;;
55483;SDS011;41345;51.704;5.146;2023-07-16T23:10:51;6.40;;;2.30;;
55483;SDS011;41345;51.704;5.146;2023-07-16T23:15:51;6.18;;;2.22;;
55483;SDS011;41345;51.704;5.146;2023-07-16T23:20:52;7.20;;;2.40;;
55483;SDS011;41345;51.704;5.146;2023-07-16T23:25:52;6.22;;;2.25;;
55483;SDS011;41345;51.704;5.146;2023-07-16T23:30:53;7.15;;;2.38;;
55483;SDS011;41345;51.704;5.146;2023-07-16T23:35:53;5.40;;;2.53;;
55483;SDS011;41345;51.704;5.146;2023-07-16T23:40:54;6.72;;;3.03;;
55483;SDS011;41345;51.704;5.146;2023-07-16T23:45:55;10.32;;;2.80;;
55483;SDS011;41345;51.704;5.146;2023-07-16T23:50:55;7.93;;;3.23;;
55483;SDS011;41345;51.704;5.146;2023-07-16T23:55:55;7.13;;;3.33;;
